Terminal Aerodrome Forecast
Issued by NWS

Home | Current Version | Previous Version | Text Only | Print | Product List | Glossary On
Versions: 1 2 3 4 5 6 7 8 9 10 11 12
000
FTUS42 KMLB 270535
TAFTIX
TAF
KTIX 270535Z 2706/2806 10006KT P6SM FEW025 BKN250
     FM271600 08012KT P6SM SCT040 SCT250
     FM280100 08007KT P6SM FEW030 SCT250
      AMD NOT SKED TIL 271200=

USA.gov is the U.S. government's official web portal to all federal, state and local government web resources and services.